KDQH

Douglas Municipal Airport

Douglas, Georgia, USA
METAR KDQH 271036Z AUTO 07004KT 10SM CLR 22/21 A2992 RMK AO2
Observed Flight Rules
May-27 @ 10:36 UTC (an hour ago) Visual Flight Rules
Wind Visibility Clouds
70° at 4 knots 10 miles
  • Clear skies
Temperatures Readings
Current 22°C / 72°F
Dewpoint 21°C / 70°F
Humidity 94%
Altimeter 29.92" Hg
Pressure 1013 hPa
Elevation 78
METAR KDQH 271036Z AUTO 07004KT 10SM CLR 22/21 A2992 RMK AO2
Observed Flight Rules
May-27 @ 10:36 UTC
(an hour ago)
VFR
Wind Visibility
70° at 4 knots 10 miles
Clouds
  • Clear skies
Temperature Dewpoint
22°C / 72°F 21°C / 70°F
Humidity Altimeter Pressure
94% 29.92" Hg 1013 hPa